createdAt,value
2023-04-28T00:02:25.257Z,15.60
2023-04-28T00:05:00.270Z,15.87
2023-04-28T00:07:36.251Z,13.57
2023-04-28T00:10:11.854Z,14.33
2023-04-28T00:12:46.361Z,15.43
2023-04-28T00:15:21.079Z,15.87
2023-04-28T00:17:55.605Z,19.97
2023-04-28T00:20:30.465Z,34.93
2023-04-28T00:23:06.467Z,42.30
2023-04-28T00:25:41.290Z,46.37
2023-04-28T00:28:30.482Z,48.37
2023-04-28T00:31:13.434Z,47.57
2023-04-28T00:33:47.861Z,58.67
2023-04-28T00:36:22.702Z,59.23
2023-04-28T00:38:58.394Z,36.03
2023-04-28T00:41:33.036Z,18.47
2023-04-28T00:44:07.348Z,13.10
2023-04-28T00:46:42.733Z,12.33
2023-04-28T00:49:17.928Z,10.37
2023-04-28T00:51:52.620Z,10.63
2023-04-28T00:54:28.479Z,11.93
2023-04-28T00:57:04.929Z,12.67
2023-04-28T00:59:39.264Z,18.17
2023-04-28T01:02:17.577Z,18.03
2023-04-28T01:04:52.944Z,16.93
2023-04-28T01:07:28.711Z,18.63
2023-04-28T01:10:04.975Z,18.87
2023-04-28T01:12:41.158Z,18.77
2023-04-28T01:15:18.594Z,25.00
2023-04-28T01:17:53.989Z,30.03
2023-04-28T01:20:28.471Z,27.30
2023-04-28T01:23:03.301Z,26.53
2023-04-28T01:25:38.988Z,27.60
2023-04-28T01:28:14.034Z,30.00
2023-04-28T01:30:48.450Z,33.63
2023-04-28T01:33:25.907Z,34.97
2023-04-28T01:36:00.289Z,42.00
2023-04-28T01:38:35.005Z,41.70
2023-04-28T01:41:11.158Z,46.43
2023-04-28T01:43:45.906Z,39.10
2023-04-28T01:46:23.299Z,33.57
2023-04-28T01:48:58.333Z,23.73
2023-04-28T01:51:33.031Z,18.30
2023-04-28T01:54:08.453Z,18.60
2023-04-28T01:56:44.271Z,17.20
2023-04-28T01:59:21.212Z,17.43
2023-04-28T02:01:55.614Z,17.23
2023-04-28T02:04:30.278Z,17.57
2023-04-28T02:07:06.034Z,17.80
2023-04-28T02:09:40.664Z,16.80
2023-04-28T02:12:17.641Z,15.90
2023-04-28T02:14:52.420Z,14.77
2023-04-28T02:17:27.205Z,14.73
2023-04-28T02:20:02.116Z,15.90
2023-04-28T02:22:36.878Z,19.13
2023-04-28T02:25:11.463Z,18.70
2023-04-28T02:27:47.673Z,21.73
2023-04-28T02:30:22.133Z,20.17
2023-04-28T02:32:56.951Z,21.63
2023-04-28T02:35:31.541Z,22.27
2023-04-28T02:38:06.431Z,27.23
2023-04-28T02:40:40.804Z,34.10
2023-04-28T02:43:17.283Z,36.53
2023-04-28T02:45:51.753Z,39.63
2023-04-28T02:48:27.024Z,41.97
2023-04-28T02:51:01.503Z,40.03
2023-04-28T02:53:36.836Z,39.83
2023-04-28T02:56:11.367Z,36.23
2023-04-28T02:58:47.482Z,37.97
2023-04-28T03:01:21.964Z,32.60
2023-04-28T03:03:57.229Z,32.73
2023-04-28T03:06:31.820Z,29.60
2023-04-28T03:09:07.126Z,25.47
2023-04-28T03:11:41.948Z,23.70
2023-04-28T03:14:18.301Z,24.93
2023-04-28T03:16:52.888Z,28.07
2023-04-28T03:19:27.907Z,29.83
2023-04-28T03:22:03.497Z,27.70
2023-04-28T03:24:39.650Z,24.00
2023-04-28T03:27:14.203Z,23.73
2023-04-28T03:29:50.719Z,23.40
2023-04-28T03:32:25.584Z,25.27
2023-04-28T03:35:00.366Z,27.10
2023-04-28T03:37:34.695Z,31.90
2023-04-28T03:40:10.651Z,29.43
2023-04-28T03:42:47.068Z,28.60
2023-04-28T03:45:23.990Z,26.47
2023-04-28T03:47:58.401Z,28.83
2023-04-28T03:50:33.516Z,29.80
2023-04-28T03:53:08.469Z,32.47
2023-04-28T03:55:43.068Z,30.80
2023-04-28T03:58:17.473Z,30.30
2023-04-28T04:00:54.298Z,26.77
2023-04-28T04:03:29.208Z,24.97
2023-04-28T04:06:03.758Z,19.77
2023-04-28T04:08:38.734Z,16.27
2023-04-28T04:11:13.141Z,15.80
2023-04-28T04:13:48.034Z,16.30
2023-04-28T04:16:24.296Z,15.70
2023-04-28T04:19:01.299Z,15.30
2023-04-28T04:21:35.926Z,15.70
2023-04-28T04:24:10.633Z,10.70
2023-04-28T04:26:45.368Z,8.60
2023-04-28T04:29:22.023Z,8.27
2023-04-28T04:31:57.758Z,8.60
2023-04-28T04:34:32.402Z,35.70
2023-04-28T04:37:06.750Z,8.40
2023-04-28T04:39:42.641Z,8.67
2023-04-28T04:44:59.254Z,12.93
2023-04-28T04:47:35.456Z,21.30
2023-04-28T04:50:10.877Z,18.33
2023-04-28T04:52:45.349Z,18.60
2023-04-28T04:55:20.456Z,18.13
2023-04-28T04:57:56.428Z,16.97
2023-04-28T05:00:32.601Z,16.73
2023-04-28T05:03:09.699Z,17.73
2023-04-28T05:05:46.623Z,17.50
2023-04-28T05:08:21.137Z,48.47
2023-04-28T05:10:56.095Z,16.87
2023-04-28T05:13:31.392Z,17.53
2023-04-28T05:16:07.280Z,69.10
2023-04-28T05:18:43.968Z,16.20
2023-04-28T05:21:18.819Z,14.80
2023-04-28T05:23:53.917Z,11.73
2023-04-28T05:26:28.527Z,10.00
2023-04-28T05:29:04.803Z,7.20
2023-04-28T05:31:39.674Z,7.10
2023-04-28T05:34:15.807Z,7.10
2023-04-28T05:36:51.166Z,6.43
2023-04-28T05:39:25.742Z,6.43
2023-04-28T05:42:00.479Z,8.03
2023-04-28T05:44:34.946Z,13.63
2023-04-28T05:47:09.539Z,10.77
2023-04-28T05:49:45.295Z,8.90
2023-04-28T05:52:20.100Z,6.53
2023-04-28T05:54:54.405Z,6.20
2023-04-28T05:57:30.534Z,6.27
2023-04-28T06:02:56.822Z,31.65
2023-04-28T06:05:32.795Z,6.70
2023-04-28T06:08:07.970Z,95.30
2023-04-28T06:10:42.833Z,6.17
2023-04-28T06:13:17.156Z,5.40
2023-04-28T06:15:51.934Z,7.00
2023-04-28T06:18:28.034Z,6.00
2023-04-28T06:21:02.960Z,6.27
2023-04-28T06:23:38.844Z,5.67
2023-04-28T06:26:14.002Z,5.63
2023-04-28T06:28:49.377Z,4.87
2023-04-28T06:31:24.372Z,5.10
2023-04-28T06:34:01.805Z,13.17
2023-04-28T06:36:36.680Z,5.20
2023-04-28T06:39:11.470Z,4.67
2023-04-28T06:41:47.529Z,4.60
2023-04-28T06:44:22.695Z,5.07
2023-04-28T06:46:57.441Z,4.10
2023-04-28T06:49:33.396Z,4.07
2023-04-28T06:52:09.069Z,4.77
2023-04-28T06:54:43.572Z,4.87
2023-04-28T06:57:18.407Z,4.70
2023-04-28T06:59:52.916Z,5.27
2023-04-28T07:02:27.717Z,4.27
2023-04-28T07:05:03.942Z,4.80
2023-04-28T07:07:39.870Z,4.07
2023-04-28T07:10:15.905Z,4.80
2023-04-28T07:12:52.102Z,4.53
2023-04-28T07:15:26.537Z,3.97
2023-04-28T07:18:01.180Z,6.33
2023-04-28T07:20:36.910Z,4.90
2023-04-28T07:23:11.564Z,12.93
2023-04-28T07:25:46.192Z,4.13
2023-04-28T07:28:21.882Z,4.67
2023-04-28T07:30:58.444Z,4.20
2023-04-28T07:33:33.183Z,4.60
2023-04-28T07:36:09.370Z,4.13
2023-04-28T07:38:44.077Z,4.07
2023-04-28T07:41:19.027Z,4.03
2023-04-28T07:43:53.785Z,3.83
2023-04-28T07:46:28.086Z,6.50
2023-04-28T07:49:03.151Z,3.53
2023-04-28T07:51:38.866Z,3.00
2023-04-28T07:54:13.812Z,3.27
2023-04-28T07:56:48.376Z,3.00
2023-04-28T07:59:23.252Z,2.60
2023-04-28T08:01:57.577Z,2.63
2023-04-28T08:04:34.175Z,18.10
2023-04-28T08:07:11.295Z,3.83
2023-04-28T08:09:47.593Z,5.07
2023-04-28T08:12:22.210Z,2.90
2023-04-28T08:14:58.527Z,2.20
2023-04-28T08:17:32.776Z,3.03
2023-04-28T08:20:09.326Z,2.30
2023-04-28T08:22:45.211Z,2.23
2023-04-28T08:25:19.782Z,2.97
2023-04-28T08:27:57.081Z,2.10
2023-04-28T08:30:32.316Z,4.30
2023-04-28T08:33:07.651Z,2.60
2023-04-28T08:35:42.493Z,10.03
2023-04-28T08:38:18.416Z,3.13
2023-04-28T08:40:53.083Z,7.37
2023-04-28T08:43:28.678Z,3.37
2023-04-28T08:46:07.624Z,4.10
2023-04-28T08:48:43.879Z,3.17
2023-04-28T08:51:28.788Z,2.87
2023-04-28T08:56:46.051Z,7.27
2023-04-28T08:59:20.912Z,2.20
2023-04-28T09:01:57.133Z,3.63
2023-04-28T09:04:31.816Z,1.87
2023-04-28T09:07:12.904Z,2.97
2023-04-28T09:09:48.776Z,1.93
2023-04-28T09:12:24.391Z,1.97
2023-04-28T09:15:06.131Z,2.13
2023-04-28T09:17:51.130Z,1.93
2023-04-28T09:20:27.840Z,2.40
2023-04-28T09:23:16.637Z,1.60
2023-04-28T09:26:00.834Z,2.07
2023-04-28T09:28:36.921Z,2.00
2023-04-28T09:31:25.435Z,6.57
2023-04-28T09:34:00.984Z,2.20
2023-04-28T09:36:35.260Z,1.70
2023-04-28T09:39:10.106Z,1.57
2023-04-28T09:41:46.717Z,1.67
2023-04-28T09:44:22.014Z,1.93
2023-04-28T09:46:56.331Z,2.03
2023-04-28T09:49:31.135Z,2.17
2023-04-28T09:52:14.601Z,1.50
2023-04-28T09:54:51.442Z,1.60
2023-04-28T09:57:30.461Z,1.90
2023-04-28T10:00:09.237Z,1.52
2023-04-28T10:02:46.447Z,2.95
2023-04-28T10:05:23.315Z,20.40
2023-04-28T10:08:00.393Z,6.03
2023-04-28T10:10:35.284Z,1.95
2023-04-28T10:13:12.853Z,2.75
2023-04-28T10:15:49.427Z,1.60
2023-04-28T10:18:25.025Z,1.62
2023-04-28T10:21:03.336Z,2.00
2023-04-28T10:24:06.782Z,1.73
2023-04-28T10:27:09.650Z,1.87
2023-04-28T10:29:46.661Z,2.20
2023-04-28T10:32:26.505Z,1.60
2023-04-28T10:35:36.417Z,2.15
2023-04-28T10:38:13.044Z,1.90
2023-04-28T10:40:48.892Z,1.87
2023-04-28T10:43:42.067Z,2.03
2023-04-28T10:46:18.140Z,2.10
2023-04-28T10:48:59.312Z,1.98
2023-04-28T10:51:35.325Z,1.85
2023-04-28T10:54:20.079Z,1.60
2023-04-28T10:57:20.423Z,1.83
2023-04-28T11:00:30.816Z,1.85
2023-04-28T11:03:07.153Z,2.00
2023-04-28T11:06:01.594Z,2.22
2023-04-28T11:08:36.671Z,1.77
2023-04-28T11:11:25.990Z,2.25
2023-04-28T11:14:31.629Z,2.08
2023-04-28T11:17:08.714Z,1.90
2023-04-28T11:19:46.271Z,1.67
2023-04-28T11:22:23.522Z,2.28
2023-04-28T11:24:58.905Z,1.75
2023-04-28T11:27:35.130Z,2.10
2023-04-28T11:30:22.401Z,1.95
2023-04-28T11:32:57.047Z,2.25
2023-04-28T11:35:43.621Z,2.30
2023-04-28T11:38:17.905Z,1.80
2023-04-28T11:40:59.265Z,2.40
2023-04-28T11:43:43.978Z,2.10
2023-04-28T11:46:23.231Z,2.10
2023-04-28T11:49:05.800Z,1.77
2023-04-28T11:51:43.242Z,2.00
2023-04-28T11:54:22.440Z,1.60
2023-04-28T11:56:58.485Z,2.03
2023-04-28T11:59:34.194Z,2.20
2023-04-28T12:02:09.196Z,9.45
2023-04-28T12:04:50.850Z,17.75
2023-04-28T12:07:26.765Z,2.65
2023-04-28T12:10:16.058Z,1.85
2023-04-28T12:12:53.063Z,2.80
2023-04-28T12:15:41.771Z,2.37
2023-04-28T12:18:19.547Z,2.75
2023-04-28T12:20:54.257Z,2.10
2023-04-28T12:23:34.163Z,1.67
2023-04-28T12:26:10.269Z,1.83
2023-04-28T12:28:44.920Z,1.85
2023-04-28T12:31:19.608Z,1.98
2023-04-28T12:33:53.987Z,2.10
2023-04-28T12:36:28.552Z,1.85
2023-04-28T12:39:04.472Z,1.95
2023-04-28T12:41:39.070Z,2.03
2023-04-28T12:44:13.621Z,2.03
2023-04-28T12:46:48.270Z,1.70
2023-04-28T12:49:22.609Z,1.90
2023-04-28T12:51:57.553Z,2.65
2023-04-28T12:54:33.721Z,1.50
2023-04-28T12:57:08.490Z,1.98
2023-04-28T12:59:43.040Z,5.70
2023-04-28T13:02:18.376Z,3.60
2023-04-28T13:04:53.241Z,2.20
2023-04-28T13:07:30.669Z,2.17
2023-04-28T13:10:08.125Z,3.20
2023-04-28T13:12:43.121Z,2.42
2023-04-28T13:15:17.756Z,2.30
2023-04-28T13:17:52.381Z,2.25
2023-04-28T13:20:27.123Z,2.85
2023-04-28T13:23:01.771Z,2.20
2023-04-28T13:25:37.694Z,1.80
2023-04-28T13:28:13.620Z,3.53
2023-04-28T13:30:48.034Z,2.22
2023-04-28T13:33:22.700Z,6.03
2023-04-28T13:35:57.175Z,2.78
2023-04-28T13:38:31.966Z,4.07
2023-04-28T13:41:07.862Z,7.68
2023-04-28T13:43:42.585Z,10.60
2023-04-28T13:46:17.694Z,10.20
2023-04-28T13:48:52.450Z,2.33
2023-04-28T13:51:26.919Z,1.90
2023-04-28T13:54:04.625Z,9.07
2023-04-28T13:56:40.568Z,3.87
2023-04-28T13:59:15.626Z,2.25
2023-04-28T14:03:01.986Z,10.77
2023-04-28T14:05:46.220Z,6.20
2023-04-28T14:08:26.468Z,2.58
2023-04-28T14:11:03.142Z,2.10
2023-04-28T14:13:37.609Z,1.80
2023-04-28T14:16:12.948Z,2.47
2023-04-28T14:18:48.706Z,6.05
2023-04-28T14:21:24.128Z,6.95
2023-04-28T14:23:58.422Z,9.88
2023-04-28T14:26:33.102Z,10.85
2023-04-28T14:29:07.669Z,8.02
2023-04-28T14:31:42.394Z,2.20
2023-04-28T14:34:18.216Z,2.10
2023-04-28T14:36:53.057Z,2.33
2023-04-28T14:39:27.364Z,2.20
2023-04-28T14:42:01.991Z,3.90
2023-04-28T14:44:37.092Z,2.50
2023-04-28T14:47:12.519Z,3.80
2023-04-28T14:49:48.775Z,2.00
2023-04-28T14:52:23.745Z,3.05
2023-04-28T14:54:59.134Z,3.70
2023-04-28T14:57:35.567Z,3.87
2023-04-28T15:00:11.289Z,2.30
2023-04-28T15:02:46.216Z,3.47
2023-04-28T15:05:22.137Z,2.95
2023-04-28T15:07:57.128Z,3.92
2023-04-28T15:10:38.624Z,2.90
2023-04-28T15:13:13.400Z,2.75
2023-04-28T15:15:48.020Z,6.18
2023-04-28T15:18:22.632Z,3.08
2023-04-28T15:20:58.632Z,2.50
2023-04-28T15:23:33.333Z,2.40
2023-04-28T15:26:08.650Z,54.90
2023-04-28T15:28:43.337Z,5.22
2023-04-28T15:31:17.748Z,2.58
2023-04-28T15:33:52.694Z,2.00
2023-04-28T15:36:28.796Z,2.40
2023-04-28T15:39:03.797Z,2.53
2023-04-28T15:41:38.952Z,2.50
2023-04-28T15:44:13.576Z,3.10
2023-04-28T15:46:47.926Z,2.72
2023-04-28T15:49:22.657Z,2.80
2023-04-28T15:51:58.312Z,2.70
2023-04-28T15:54:33.024Z,7.68
2023-04-28T15:57:07.587Z,3.15
2023-04-28T15:59:42.343Z,2.42
2023-04-28T16:02:16.692Z,3.60
2023-04-28T16:04:51.563Z,3.40
2023-04-28T16:07:27.780Z,3.05
2023-04-28T16:10:02.606Z,2.92
2023-04-28T16:12:37.165Z,2.78
2023-04-28T16:15:13.842Z,1.92
2023-04-28T16:17:49.220Z,3.03
2023-04-28T16:20:24.106Z,2.90
2023-04-28T16:23:00.028Z,2.80
2023-04-28T16:25:35.531Z,2.75
2023-04-28T16:28:09.915Z,3.53
2023-04-28T16:30:44.973Z,4.00
2023-04-28T16:33:19.231Z,2.87
2023-04-28T16:35:59.624Z,3.80
2023-04-28T16:38:35.773Z,4.10
2023-04-28T16:41:10.473Z,3.00
2023-04-28T16:43:44.920Z,3.08
2023-04-28T16:46:19.659Z,4.10
2023-04-28T16:48:54.098Z,3.20
2023-04-28T16:51:29.483Z,4.37
2023-04-28T16:54:05.478Z,4.10
2023-04-28T16:56:40.899Z,3.20
2023-04-28T16:59:15.350Z,3.35
2023-04-28T17:01:51.046Z,4.90
2023-04-28T17:04:25.649Z,4.72
2023-04-28T17:07:03.590Z,4.55
2023-04-28T17:09:39.544Z,4.80
2023-04-28T17:12:14.641Z,4.40
2023-04-28T17:14:50.684Z,6.32
2023-04-28T17:17:25.996Z,16.73
2023-04-28T17:20:02.406Z,4.47
2023-04-28T17:22:37.188Z,4.78
2023-04-28T17:25:14.481Z,5.30
2023-04-28T17:27:49.181Z,6.30
2023-04-28T17:30:24.517Z,6.80
2023-04-28T17:32:59.884Z,5.32
2023-04-28T17:35:34.388Z,4.60
2023-04-28T17:38:09.133Z,4.35
2023-04-28T17:40:48.631Z,4.03
2023-04-28T17:43:25.664Z,4.95
2023-04-28T17:45:59.989Z,3.83
2023-04-28T17:48:34.717Z,4.60
2023-04-28T17:51:09.177Z,5.55
2023-04-28T17:53:48.746Z,5.10
2023-04-28T17:56:24.556Z,5.33
2023-04-28T17:58:59.421Z,5.13
2023-04-28T18:01:35.244Z,4.47
2023-04-28T18:04:11.275Z,4.35
2023-04-28T18:06:46.308Z,3.78
2023-04-28T18:09:21.253Z,4.00
2023-04-28T18:11:57.364Z,4.20
2023-04-28T18:14:32.451Z,4.40
2023-04-28T18:17:07.058Z,5.50
2023-04-28T18:19:42.214Z,6.97
2023-04-28T18:22:16.774Z,8.60
2023-04-28T18:24:51.569Z,7.13
2023-04-28T18:27:27.800Z,6.90
2023-04-28T18:30:02.925Z,6.15
2023-04-28T18:32:37.664Z,3.90
2023-04-28T18:35:15.180Z,3.85
2023-04-28T18:37:49.920Z,3.50
2023-04-28T18:40:24.954Z,25.00
2023-04-28T18:43:02.124Z,26.87
2023-04-28T18:45:41.280Z,4.40
2023-04-28T18:48:18.494Z,4.50
2023-04-28T18:50:53.976Z,4.25
2023-04-28T18:53:29.640Z,5.00
2023-04-28T18:56:04.678Z,4.40
2023-04-28T18:58:41.913Z,4.17
2023-04-28T19:01:16.962Z,4.30
2023-04-28T19:03:51.809Z,5.00
2023-04-28T19:06:27.082Z,5.00
2023-04-28T19:09:02.434Z,4.17
2023-04-28T19:11:37.049Z,3.97
2023-04-28T19:14:14.345Z,3.00
2023-04-28T19:16:49.768Z,3.47
2023-04-28T19:19:24.710Z,4.07
2023-04-28T19:22:00.004Z,3.87
2023-04-28T19:24:34.784Z,4.07
2023-04-28T19:27:09.670Z,3.57
2023-04-28T19:29:45.535Z,4.30
2023-04-28T19:32:20.603Z,3.67
2023-04-28T19:34:55.704Z,4.23
2023-04-28T19:37:30.693Z,3.30
2023-04-28T19:40:07.165Z,3.13
2023-04-28T19:42:42.238Z,3.50
2023-04-28T19:45:18.213Z,2.83
2023-04-28T19:47:53.916Z,2.70
2023-04-28T19:50:28.999Z,2.80
2023-04-28T19:53:04.127Z,3.03
2023-04-28T19:55:38.853Z,2.77
2023-04-28T19:58:14.091Z,2.97
2023-04-28T20:00:50.173Z,2.37
2023-04-28T20:03:25.386Z,8.23
2023-04-28T20:06:00.246Z,27.13
2023-04-28T20:08:35.375Z,2.70
2023-04-28T20:11:10.494Z,2.80
2023-04-28T20:13:45.800Z,3.23
2023-04-28T20:16:24.919Z,3.30
2023-04-28T20:19:00.049Z,3.35
2023-04-28T20:21:35.234Z,2.83
2023-04-28T20:24:10.357Z,2.73
2023-04-28T20:26:44.918Z,2.83
2023-04-28T20:29:19.664Z,3.03
2023-04-28T20:31:56.140Z,3.00
2023-04-28T20:34:31.295Z,3.57
2023-04-28T20:37:06.726Z,3.43
2023-04-28T20:39:41.554Z,2.57
2023-04-28T20:42:16.639Z,2.37
2023-04-28T20:44:52.032Z,2.23
2023-04-28T20:47:28.139Z,2.23
2023-04-28T20:50:03.347Z,2.47
2023-04-28T20:52:38.108Z,2.70
2023-04-28T20:55:12.894Z,2.33
2023-04-28T20:57:47.380Z,2.57
2023-04-28T21:00:22.396Z,3.07
2023-04-28T21:02:58.231Z,2.13
2023-04-28T21:05:33.122Z,2.13
2023-04-28T21:08:07.628Z,2.80
2023-04-28T21:10:42.349Z,2.50
2023-04-28T21:13:16.709Z,21.93
2023-04-28T21:15:51.372Z,2.20
2023-04-28T21:18:27.186Z,3.17
2023-04-28T21:21:02.215Z,2.67
2023-04-28T21:23:37.827Z,2.23
2023-04-28T21:26:12.929Z,2.33
2023-04-28T21:28:47.855Z,2.40
2023-04-28T21:31:23.807Z,1.93
2023-04-28T21:33:59.764Z,1.80
2023-04-28T21:36:34.660Z,2.20
2023-04-28T21:39:08.947Z,1.80
2023-04-28T21:41:43.569Z,2.80
2023-04-28T21:44:17.908Z,2.43
2023-04-28T21:46:52.810Z,2.40
2023-04-28T21:49:28.715Z,1.93
2023-04-28T21:52:05.169Z,2.30
2023-04-28T21:54:39.546Z,2.20
2023-04-28T21:57:15.900Z,2.23
2023-04-28T21:59:51.001Z,2.40
2023-04-28T22:03:09.588Z,2.33
2023-04-28T22:05:45.795Z,2.23
2023-04-28T22:08:20.141Z,2.40
2023-04-28T22:10:54.838Z,2.03
2023-04-28T22:13:29.163Z,2.40
2023-04-28T22:16:05.253Z,3.80
2023-04-28T22:18:41.201Z,2.60
2023-04-28T22:21:16.121Z,3.53
2023-04-28T22:23:50.533Z,2.27
2023-04-28T22:26:36.700Z,2.13
2023-04-28T22:29:11.438Z,2.57
2023-04-28T22:31:46.584Z,2.87
2023-04-28T22:34:22.650Z,2.30
2023-04-28T22:36:57.274Z,2.40
2023-04-28T22:39:31.581Z,2.53
2023-04-28T22:42:06.118Z,3.07
2023-04-28T22:44:40.693Z,2.53
2023-04-28T22:47:15.349Z,2.40
2023-04-28T22:49:51.409Z,2.73
2023-04-28T22:52:26.365Z,2.43
2023-04-28T22:55:00.858Z,2.53
2023-04-28T22:57:36.556Z,2.83
2023-04-28T23:00:12.068Z,2.60
2023-04-28T23:02:47.027Z,2.23
2023-04-28T23:05:22.873Z,2.77
2023-04-28T23:07:57.635Z,2.40
2023-04-28T23:10:31.984Z,2.40
2023-04-28T23:13:06.447Z,2.73
2023-04-28T23:15:40.875Z,2.47
2023-04-28T23:18:15.705Z,2.80
2023-04-28T23:20:51.337Z,2.83
2023-04-28T23:23:26.417Z,2.70
2023-04-28T23:26:00.860Z,2.80
2023-04-28T23:28:35.578Z,2.90
2023-04-28T23:31:10.023Z,2.90
2023-04-28T23:33:45.830Z,2.83
2023-04-28T23:36:21.617Z,2.97
2023-04-28T23:38:56.780Z,3.13
2023-04-28T23:41:31.201Z,2.90
2023-04-28T23:44:05.956Z,3.07
2023-04-28T23:46:40.382Z,2.63
2023-04-28T23:49:16.560Z,2.90
2023-04-28T23:51:53.017Z,3.07
2023-04-28T23:54:27.639Z,2.93
2023-04-28T23:57:01.931Z,2.77
2023-04-28T23:59:36.478Z,2.97
